sensor_id;sensor_type;location;lat;lon;timestamp;P1;durP1;ratioP1;P2;durP2;ratioP2
15112;SDS011;7657;50.140;7.076;2023-07-22T00:02:06;5.15;;;3.90;;
15112;SDS011;7657;50.140;7.076;2023-07-22T00:04:33;4.72;;;3.63;;
15112;SDS011;7657;50.140;7.076;2023-07-22T00:07:00;6.75;;;3.45;;
15112;SDS011;7657;50.140;7.076;2023-07-22T00:09:27;4.63;;;3.95;;
15112;SDS011;7657;50.140;7.076;2023-07-22T00:11:54;3.75;;;3.35;;
15112;SDS011;7657;50.140;7.076;2023-07-22T00:14:22;5.65;;;3.80;;
15112;SDS011;7657;50.140;7.076;2023-07-22T00:16:49;6.03;;;4.00;;
15112;SDS011;7657;50.140;7.076;2023-07-22T00:19:16;6.63;;;3.63;;
15112;SDS011;7657;50.140;7.076;2023-07-22T00:21:42;4.82;;;3.95;;
15112;SDS011;7657;50.140;7.076;2023-07-22T00:24:09;5.00;;;3.55;;
15112;SDS011;7657;50.140;7.076;2023-07-22T00:26:36;5.55;;;3.85;;
15112;SDS011;7657;50.140;7.076;2023-07-22T00:29:03;5.13;;;3.40;;
15112;SDS011;7657;50.140;7.076;2023-07-22T00:31:32;4.70;;;3.90;;
15112;SDS011;7657;50.140;7.076;2023-07-22T00:33:59;4.60;;;3.50;;
15112;SDS011;7657;50.140;7.076;2023-07-22T00:36:26;4.53;;;3.53;;
15112;SDS011;7657;50.140;7.076;2023-07-22T00:38:54;4.82;;;3.65;;
15112;SDS011;7657;50.140;7.076;2023-07-22T00:41:21;4.38;;;3.50;;
15112;SDS011;7657;50.140;7.076;2023-07-22T00:43:47;5.45;;;3.65;;
15112;SDS011;7657;50.140;7.076;2023-07-22T00:46:14;5.30;;;4.05;;
15112;SDS011;7657;50.140;7.076;2023-07-22T00:48:42;5.90;;;3.85;;
15112;SDS011;7657;50.140;7.076;2023-07-22T00:51:09;5.25;;;4.00;;
15112;SDS011;7657;50.140;7.076;2023-07-22T00:53:36;5.93;;;3.90;;
15112;SDS011;7657;50.140;7.076;2023-07-22T00:56:03;4.53;;;3.58;;
15112;SDS011;7657;50.140;7.076;2023-07-22T00:58:31;4.70;;;3.70;;
15112;SDS011;7657;50.140;7.076;2023-07-22T01:00:58;6.20;;;3.70;;
15112;SDS011;7657;50.140;7.076;2023-07-22T01:03:25;5.72;;;3.88;;
15112;SDS011;7657;50.140;7.076;2023-07-22T01:05:54;4.95;;;4.10;;
15112;SDS011;7657;50.140;7.076;2023-07-22T01:08:22;4.82;;;3.65;;
15112;SDS011;7657;50.140;7.076;2023-07-22T01:10:49;5.72;;;3.63;;
15112;SDS011;7657;50.140;7.076;2023-07-22T01:13:16;5.95;;;3.97;;
15112;SDS011;7657;50.140;7.076;2023-07-22T01:15:42;5.05;;;3.70;;
15112;SDS011;7657;50.140;7.076;2023-07-22T01:18:10;4.65;;;3.75;;
15112;SDS011;7657;50.140;7.076;2023-07-22T01:20:37;4.75;;;3.83;;
15112;SDS011;7657;50.140;7.076;2023-07-22T01:23:06;4.05;;;3.33;;
15112;SDS011;7657;50.140;7.076;2023-07-22T01:25:33;4.28;;;3.70;;
15112;SDS011;7657;50.140;7.076;2023-07-22T01:28:00;4.25;;;3.60;;
15112;SDS011;7657;50.140;7.076;2023-07-22T01:30:27;5.63;;;4.43;;
15112;SDS011;7657;50.140;7.076;2023-07-22T01:32:54;4.10;;;3.65;;
15112;SDS011;7657;50.140;7.076;2023-07-22T01:35:21;5.40;;;3.70;;
15112;SDS011;7657;50.140;7.076;2023-07-22T01:37:48;7.00;;;3.80;;
15112;SDS011;7657;50.140;7.076;2023-07-22T01:40:16;5.65;;;3.45;;
15112;SDS011;7657;50.140;7.076;2023-07-22T01:42:43;4.82;;;3.67;;
15112;SDS011;7657;50.140;7.076;2023-07-22T01:45:10;6.75;;;3.97;;
15112;SDS011;7657;50.140;7.076;2023-07-22T01:47:38;4.47;;;3.97;;
15112;SDS011;7657;50.140;7.076;2023-07-22T01:50:05;4.22;;;3.80;;
15112;SDS011;7657;50.140;7.076;2023-07-22T01:52:33;4.72;;;3.78;;
15112;SDS011;7657;50.140;7.076;2023-07-22T01:55:00;4.75;;;3.63;;
15112;SDS011;7657;50.140;7.076;2023-07-22T01:57:32;4.20;;;3.78;;
15112;SDS011;7657;50.140;7.076;2023-07-22T01:59:59;5.65;;;4.03;;
15112;SDS011;7657;50.140;7.076;2023-07-22T02:02:26;5.53;;;3.78;;
15112;SDS011;7657;50.140;7.076;2023-07-22T02:04:53;5.28;;;3.70;;
15112;SDS011;7657;50.140;7.076;2023-07-22T02:07:20;6.07;;;4.35;;
15112;SDS011;7657;50.140;7.076;2023-07-22T02:09:47;5.03;;;4.10;;
15112;SDS011;7657;50.140;7.076;2023-07-22T02:12:17;5.78;;;4.10;;
15112;SDS011;7657;50.140;7.076;2023-07-22T02:14:45;4.13;;;3.47;;
15112;SDS011;7657;50.140;7.076;2023-07-22T02:17:12;4.57;;;3.80;;
15112;SDS011;7657;50.140;7.076;2023-07-22T02:19:38;4.97;;;3.95;;
15112;SDS011;7657;50.140;7.076;2023-07-22T02:22:05;4.78;;;3.80;;
15112;SDS011;7657;50.140;7.076;2023-07-22T02:24:32;7.07;;;3.97;;
15112;SDS011;7657;50.140;7.076;2023-07-22T02:26:59;5.35;;;3.83;;
15112;SDS011;7657;50.140;7.076;2023-07-22T02:29:26;4.28;;;3.55;;
15112;SDS011;7657;50.140;7.076;2023-07-22T02:31:54;6.05;;;3.83;;
15112;SDS011;7657;50.140;7.076;2023-07-22T02:34:21;5.88;;;4.22;;
15112;SDS011;7657;50.140;7.076;2023-07-22T02:36:48;3.97;;;3.58;;
15112;SDS011;7657;50.140;7.076;2023-07-22T02:39:15;7.07;;;4.03;;
15112;SDS011;7657;50.140;7.076;2023-07-22T02:41:42;5.53;;;4.03;;
15112;SDS011;7657;50.140;7.076;2023-07-22T02:44:09;5.80;;;4.25;;
15112;SDS011;7657;50.140;7.076;2023-07-22T02:46:36;4.22;;;3.67;;
15112;SDS011;7657;50.140;7.076;2023-07-22T02:49:04;6.63;;;3.90;;
15112;SDS011;7657;50.140;7.076;2023-07-22T02:51:31;5.00;;;4.10;;
15112;SDS011;7657;50.140;7.076;2023-07-22T02:53:58;4.35;;;3.80;;
15112;SDS011;7657;50.140;7.076;2023-07-22T02:56:25;6.97;;;4.55;;
15112;SDS011;7657;50.140;7.076;2023-07-22T02:58:52;4.97;;;3.78;;
15112;SDS011;7657;50.140;7.076;2023-07-22T03:01:18;6.35;;;4.00;;
15112;SDS011;7657;50.140;7.076;2023-07-22T03:03:45;6.13;;;4.18;;
15112;SDS011;7657;50.140;7.076;2023-07-22T03:06:14;6.25;;;4.03;;
15112;SDS011;7657;50.140;7.076;2023-07-22T03:08:41;6.82;;;4.35;;
15112;SDS011;7657;50.140;7.076;2023-07-22T03:11:08;5.78;;;4.00;;
15112;SDS011;7657;50.140;7.076;2023-07-22T03:13:35;4.95;;;3.80;;
15112;SDS011;7657;50.140;7.076;2023-07-22T03:16:02;5.03;;;4.13;;
15112;SDS011;7657;50.140;7.076;2023-07-22T03:18:30;7.30;;;4.00;;
15112;SDS011;7657;50.140;7.076;2023-07-22T03:20:57;5.72;;;4.03;;
15112;SDS011;7657;50.140;7.076;2023-07-22T03:23:25;5.85;;;3.88;;
15112;SDS011;7657;50.140;7.076;2023-07-22T03:25:52;7.22;;;4.15;;
15112;SDS011;7657;50.140;7.076;2023-07-22T03:28:19;4.57;;;3.92;;
15112;SDS011;7657;50.140;7.076;2023-07-22T03:30:46;6.43;;;4.55;;
15112;SDS011;7657;50.140;7.076;2023-07-22T03:33:12;4.47;;;3.92;;
15112;SDS011;7657;50.140;7.076;2023-07-22T03:35:40;6.13;;;4.57;;
15112;SDS011;7657;50.140;7.076;2023-07-22T03:38:06;8.85;;;4.88;;
15112;SDS011;7657;50.140;7.076;2023-07-22T03:40:35;5.72;;;4.40;;
15112;SDS011;7657;50.140;7.076;2023-07-22T03:43:03;6.05;;;4.57;;
15112;SDS011;7657;50.140;7.076;2023-07-22T03:45:30;4.70;;;4.20;;
15112;SDS011;7657;50.140;7.076;2023-07-22T03:47:58;6.50;;;4.60;;
15112;SDS011;7657;50.140;7.076;2023-07-22T03:50:26;5.30;;;4.00;;
15112;SDS011;7657;50.140;7.076;2023-07-22T03:52:54;5.10;;;4.43;;
15112;SDS011;7657;50.140;7.076;2023-07-22T03:55:20;6.03;;;4.32;;
15112;SDS011;7657;50.140;7.076;2023-07-22T03:57:49;5.82;;;4.50;;
15112;SDS011;7657;50.140;7.076;2023-07-22T04:00:16;6.30;;;4.50;;
15112;SDS011;7657;50.140;7.076;2023-07-22T04:02:43;6.95;;;4.78;;
15112;SDS011;7657;50.140;7.076;2023-07-22T04:05:10;6.18;;;4.72;;
15112;SDS011;7657;50.140;7.076;2023-07-22T04:07:37;4.70;;;3.97;;
15112;SDS011;7657;50.140;7.076;2023-07-22T04:10:04;5.63;;;4.50;;
15112;SDS011;7657;50.140;7.076;2023-07-22T04:12:32;6.47;;;4.47;;
15112;SDS011;7657;50.140;7.076;2023-07-22T04:15:00;5.85;;;4.45;;
15112;SDS011;7657;50.140;7.076;2023-07-22T04:17:28;5.13;;;4.20;;
15112;SDS011;7657;50.140;7.076;2023-07-22T04:19:55;5.47;;;4.47;;
15112;SDS011;7657;50.140;7.076;2023-07-22T04:22:22;5.40;;;4.80;;
15112;SDS011;7657;50.140;7.076;2023-07-22T04:24:48;5.70;;;3.80;;
15112;SDS011;7657;50.140;7.076;2023-07-22T04:27:15;5.05;;;4.20;;
15112;SDS011;7657;50.140;7.076;2023-07-22T04:29:43;6.63;;;4.45;;
15112;SDS011;7657;50.140;7.076;2023-07-22T04:32:11;6.15;;;4.22;;
15112;SDS011;7657;50.140;7.076;2023-07-22T04:34:38;6.85;;;4.80;;
15112;SDS011;7657;50.140;7.076;2023-07-22T04:37:05;6.85;;;4.65;;
15112;SDS011;7657;50.140;7.076;2023-07-22T04:39:32;5.07;;;4.47;;
15112;SDS011;7657;50.140;7.076;2023-07-22T04:41:59;6.07;;;4.10;;
15112;SDS011;7657;50.140;7.076;2023-07-22T04:44:26;7.25;;;4.88;;
15112;SDS011;7657;50.140;7.076;2023-07-22T04:46:53;6.75;;;4.50;;
15112;SDS011;7657;50.140;7.076;2023-07-22T04:49:21;6.07;;;4.38;;
15112;SDS011;7657;50.140;7.076;2023-07-22T04:51:48;5.80;;;4.50;;
15112;SDS011;7657;50.140;7.076;2023-07-22T04:54:15;6.68;;;4.53;;
15112;SDS011;7657;50.140;7.076;2023-07-22T04:56:43;6.35;;;4.30;;
15112;SDS011;7657;50.140;7.076;2023-07-22T04:59:10;7.18;;;4.70;;
15112;SDS011;7657;50.140;7.076;2023-07-22T05:01:38;5.78;;;4.53;;
15112;SDS011;7657;50.140;7.076;2023-07-22T05:04:05;5.50;;;4.22;;
15112;SDS011;7657;50.140;7.076;2023-07-22T05:06:33;6.68;;;4.68;;
15112;SDS011;7657;50.140;7.076;2023-07-22T05:09:01;6.03;;;4.18;;
15112;SDS011;7657;50.140;7.076;2023-07-22T05:11:28;5.75;;;4.68;;
15112;SDS011;7657;50.140;7.076;2023-07-22T05:13:55;5.78;;;4.47;;
15112;SDS011;7657;50.140;7.076;2023-07-22T05:16:22;7.30;;;4.63;;
15112;SDS011;7657;50.140;7.076;2023-07-22T05:18:49;5.22;;;4.53;;
15112;SDS011;7657;50.140;7.076;2023-07-22T05:21:16;6.30;;;4.93;;
15112;SDS011;7657;50.140;7.076;2023-07-22T05:23:44;7.13;;;4.72;;
15112;SDS011;7657;50.140;7.076;2023-07-22T05:26:11;6.35;;;4.97;;
15112;SDS011;7657;50.140;7.076;2023-07-22T05:28:37;7.13;;;4.97;;
15112;SDS011;7657;50.140;7.076;2023-07-22T05:31:04;5.82;;;4.70;;
15112;SDS011;7657;50.140;7.076;2023-07-22T05:33:31;5.90;;;4.32;;
15112;SDS011;7657;50.140;7.076;2023-07-22T05:35:58;6.32;;;4.72;;
15112;SDS011;7657;50.140;7.076;2023-07-22T05:38:25;7.18;;;4.45;;
15112;SDS011;7657;50.140;7.076;2023-07-22T05:40:54;6.03;;;4.78;;
15112;SDS011;7657;50.140;7.076;2023-07-22T05:43:21;6.25;;;4.72;;
15112;SDS011;7657;50.140;7.076;2023-07-22T05:45:48;7.68;;;4.85;;
15112;SDS011;7657;50.140;7.076;2023-07-22T05:48:14;8.55;;;4.80;;
15112;SDS011;7657;50.140;7.076;2023-07-22T05:50:41;5.13;;;4.25;;
15112;SDS011;7657;50.140;7.076;2023-07-22T05:53:09;5.95;;;4.18;;
15112;SDS011;7657;50.140;7.076;2023-07-22T05:55:35;6.75;;;4.30;;
15112;SDS011;7657;50.140;7.076;2023-07-22T05:58:04;6.97;;;4.30;;
15112;SDS011;7657;50.140;7.076;2023-07-22T06:00:31;5.85;;;3.90;;
15112;SDS011;7657;50.140;7.076;2023-07-22T06:02:58;5.18;;;3.92;;
15112;SDS011;7657;50.140;7.076;2023-07-22T06:05:25;5.25;;;3.83;;
15112;SDS011;7657;50.140;7.076;2023-07-22T06:07:52;5.57;;;3.92;;
15112;SDS011;7657;50.140;7.076;2023-07-22T06:10:22;7.57;;;3.75;;
15112;SDS011;7657;50.140;7.076;2023-07-22T06:12:49;5.13;;;3.83;;
15112;SDS011;7657;50.140;7.076;2023-07-22T06:15:17;4.35;;;3.90;;
15112;SDS011;7657;50.140;7.076;2023-07-22T06:17:44;5.97;;;4.20;;
15112;SDS011;7657;50.140;7.076;2023-07-22T06:20:11;5.25;;;4.00;;
15112;SDS011;7657;50.140;7.076;2023-07-22T06:22:38;4.30;;;3.90;;
15112;SDS011;7657;50.140;7.076;2023-07-22T06:25:05;5.00;;;3.88;;
15112;SDS011;7657;50.140;7.076;2023-07-22T06:27:33;5.57;;;4.00;;
15112;SDS011;7657;50.140;7.076;2023-07-22T06:29:59;5.18;;;3.75;;
15112;SDS011;7657;50.140;7.076;2023-07-22T06:32:28;6.60;;;3.67;;
15112;SDS011;7657;50.140;7.076;2023-07-22T06:34:55;4.32;;;3.90;;
15112;SDS011;7657;50.140;7.076;2023-07-22T06:37:22;4.45;;;3.67;;
15112;SDS011;7657;50.140;7.076;2023-07-22T06:39:49;5.03;;;4.07;;
15112;SDS011;7657;50.140;7.076;2023-07-22T06:42:16;6.43;;;4.00;;
15112;SDS011;7657;50.140;7.076;2023-07-22T06:44:43;5.88;;;4.30;;
15112;SDS011;7657;50.140;7.076;2023-07-22T06:47:10;5.75;;;3.75;;
15112;SDS011;7657;50.140;7.076;2023-07-22T06:49:38;5.68;;;3.63;;
15112;SDS011;7657;50.140;7.076;2023-07-22T06:52:06;5.15;;;3.55;;
15112;SDS011;7657;50.140;7.076;2023-07-22T06:54:34;5.13;;;3.53;;
15112;SDS011;7657;50.140;7.076;2023-07-22T06:57:01;4.30;;;3.88;;
15112;SDS011;7657;50.140;7.076;2023-07-22T06:59:31;7.07;;;3.55;;
15112;SDS011;7657;50.140;7.076;2023-07-22T07:01:57;6.18;;;3.67;;
15112;SDS011;7657;50.140;7.076;2023-07-22T07:04:24;4.20;;;3.25;;
15112;SDS011;7657;50.140;7.076;2023-07-22T07:06:53;4.78;;;3.50;;
15112;SDS011;7657;50.140;7.076;2023-07-22T07:09:20;5.80;;;3.47;;
15112;SDS011;7657;50.140;7.076;2023-07-22T07:11:47;4.93;;;4.00;;
15112;SDS011;7657;50.140;7.076;2023-07-22T07:14:14;5.38;;;3.55;;
15112;SDS011;7657;50.140;7.076;2023-07-22T07:16:41;4.18;;;3.55;;
15112;SDS011;7657;50.140;7.076;2023-07-22T07:19:08;8.55;;;4.30;;
15112;SDS011;7657;50.140;7.076;2023-07-22T07:21:35;5.38;;;3.97;;
15112;SDS011;7657;50.140;7.076;2023-07-22T07:24:03;5.32;;;3.67;;
15112;SDS011;7657;50.140;7.076;2023-07-22T07:26:31;6.00;;;4.57;;
15112;SDS011;7657;50.140;7.076;2023-07-22T07:28:57;6.95;;;4.18;;
15112;SDS011;7657;50.140;7.076;2023-07-22T07:31:24;6.53;;;4.53;;
15112;SDS011;7657;50.140;7.076;2023-07-22T07:33:52;5.65;;;3.70;;
15112;SDS011;7657;50.140;7.076;2023-07-22T07:36:19;5.18;;;3.50;;
15112;SDS011;7657;50.140;7.076;2023-07-22T07:38:46;7.57;;;3.95;;
15112;SDS011;7657;50.140;7.076;2023-07-22T07:41:14;5.18;;;3.78;;
15112;SDS011;7657;50.140;7.076;2023-07-22T07:43:41;5.80;;;3.78;;
15112;SDS011;7657;50.140;7.076;2023-07-22T07:46:18;5.53;;;4.07;;
15112;SDS011;7657;50.140;7.076;2023-07-22T07:48:47;5.20;;;3.83;;
15112;SDS011;7657;50.140;7.076;2023-07-22T07:51:15;3.67;;;3.22;;
15112;SDS011;7657;50.140;7.076;2023-07-22T07:53:43;5.68;;;3.53;;
15112;SDS011;7657;50.140;7.076;2023-07-22T07:56:11;3.80;;;3.40;;
15112;SDS011;7657;50.140;7.076;2023-07-22T07:58:40;4.18;;;3.72;;
15112;SDS011;7657;50.140;7.076;2023-07-22T08:01:08;5.93;;;3.78;;
15112;SDS011;7657;50.140;7.076;2023-07-22T08:03:35;4.32;;;3.88;;
15112;SDS011;7657;50.140;7.076;2023-07-22T08:06:03;6.38;;;3.78;;
15112;SDS011;7657;50.140;7.076;2023-07-22T08:08:31;5.63;;;3.60;;
15112;SDS011;7657;50.140;7.076;2023-07-22T08:10:58;4.70;;;3.40;;
15112;SDS011;7657;50.140;7.076;2023-07-22T08:13:26;6.97;;;3.30;;
15112;SDS011;7657;50.140;7.076;2023-07-22T08:15:56;6.57;;;3.45;;
15112;SDS011;7657;50.140;7.076;2023-07-22T08:18:23;5.15;;;3.42;;
15112;SDS011;7657;50.140;7.076;2023-07-22T08:20:50;4.18;;;3.63;;
15112;SDS011;7657;50.140;7.076;2023-07-22T08:23:18;5.07;;;3.45;;
15112;SDS011;7657;50.140;7.076;2023-07-22T08:25:45;3.42;;;3.10;;
15112;SDS011;7657;50.140;7.076;2023-07-22T08:28:12;3.47;;;2.88;;
15112;SDS011;7657;50.140;7.076;2023-07-22T08:30:39;3.30;;;3.00;;
15112;SDS011;7657;50.140;7.076;2023-07-22T08:33:08;5.40;;;3.38;;
15112;SDS011;7657;50.140;7.076;2023-07-22T08:35:36;4.82;;;3.28;;
15112;SDS011;7657;50.140;7.076;2023-07-22T08:38:04;4.22;;;2.90;;
15112;SDS011;7657;50.140;7.076;2023-07-22T08:40:33;6.03;;;3.17;;
15112;SDS011;7657;50.140;7.076;2023-07-22T08:43:00;4.85;;;3.22;;
15112;SDS011;7657;50.140;7.076;2023-07-22T08:45:29;5.43;;;3.55;;
15112;SDS011;7657;50.140;7.076;2023-07-22T08:47:59;5.57;;;3.53;;
15112;SDS011;7657;50.140;7.076;2023-07-22T08:50:34;4.78;;;3.28;;
15112;SDS011;7657;50.140;7.076;2023-07-22T08:53:06;4.90;;;3.33;;
15112;SDS011;7657;50.140;7.076;2023-07-22T08:55:33;4.35;;;3.03;;
15112;SDS011;7657;50.140;7.076;2023-07-22T08:58:01;5.40;;;3.45;;
15112;SDS011;7657;50.140;7.076;2023-07-22T09:00:28;5.72;;;2.95;;
15112;SDS011;7657;50.140;7.076;2023-07-22T09:02:55;3.25;;;2.58;;
15112;SDS011;7657;50.140;7.076;2023-07-22T09:05:23;3.22;;;2.75;;
15112;SDS011;7657;50.140;7.076;2023-07-22T09:07:53;3.58;;;3.28;;
15112;SDS011;7657;50.140;7.076;2023-07-22T09:10:20;4.15;;;3.10;;
15112;SDS011;7657;50.140;7.076;2023-07-22T09:12:48;3.42;;;2.85;;
15112;SDS011;7657;50.140;7.076;2023-07-22T09:15:16;3.10;;;2.80;;
15112;SDS011;7657;50.140;7.076;2023-07-22T09:17:44;4.05;;;2.78;;
15112;SDS011;7657;50.140;7.076;2023-07-22T09:20:12;5.43;;;2.75;;
15112;SDS011;7657;50.140;7.076;2023-07-22T09:22:43;4.40;;;2.75;;
15112;SDS011;7657;50.140;7.076;2023-07-22T09:25:15;4.70;;;3.05;;
15112;SDS011;7657;50.140;7.076;2023-07-22T09:27:43;2.97;;;2.63;;
15112;SDS011;7657;50.140;7.076;2023-07-22T09:30:20;3.83;;;2.78;;
15112;SDS011;7657;50.140;7.076;2023-07-22T09:32:51;6.05;;;3.22;;
15112;SDS011;7657;50.140;7.076;2023-07-22T09:35:21;3.35;;;3.05;;
15112;SDS011;7657;50.140;7.076;2023-07-22T09:37:49;5.10;;;3.35;;
15112;SDS011;7657;50.140;7.076;2023-07-22T09:40:20;3.92;;;3.03;;
15112;SDS011;7657;50.140;7.076;2023-07-22T09:42:49;4.68;;;3.20;;
15112;SDS011;7657;50.140;7.076;2023-07-22T09:45:17;4.40;;;3.13;;
15112;SDS011;7657;50.140;7.076;2023-07-22T09:47:45;4.60;;;3.70;;
15112;SDS011;7657;50.140;7.076;2023-07-22T09:50:14;4.30;;;3.22;;
15112;SDS011;7657;50.140;7.076;2023-07-22T09:52:45;3.95;;;3.03;;
15112;SDS011;7657;50.140;7.076;2023-07-22T09:55:16;4.07;;;3.30;;
15112;SDS011;7657;50.140;7.076;2023-07-22T09:57:46;6.15;;;3.42;;
15112;SDS011;7657;50.140;7.076;2023-07-22T10:00:19;6.88;;;3.25;;
15112;SDS011;7657;50.140;7.076;2023-07-22T10:02:47;5.07;;;3.22;;
15112;SDS011;7657;50.140;7.076;2023-07-22T10:05:16;4.60;;;3.60;;
15112;SDS011;7657;50.140;7.076;2023-07-22T10:07:45;4.22;;;3.45;;
15112;SDS011;7657;50.140;7.076;2023-07-22T10:10:13;4.00;;;3.10;;
15112;SDS011;7657;50.140;7.076;2023-07-22T10:12:43;9.15;;;3.53;;
15112;SDS011;7657;50.140;7.076;2023-07-22T10:15:12;7.22;;;3.42;;
15112;SDS011;7657;50.140;7.076;2023-07-22T10:17:40;4.07;;;3.22;;
15112;SDS011;7657;50.140;7.076;2023-07-22T10:20:08;3.38;;;3.08;;
15112;SDS011;7657;50.140;7.076;2023-07-22T10:22:40;3.00;;;2.65;;
15112;SDS011;7657;50.140;7.076;2023-07-22T10:25:09;6.22;;;3.50;;
15112;SDS011;7657;50.140;7.076;2023-07-22T10:27:37;4.47;;;3.65;;
15112;SDS011;7657;50.140;7.076;2023-07-22T10:30:06;4.10;;;3.15;;
15112;SDS011;7657;50.140;7.076;2023-07-22T10:32:36;3.63;;;3.00;;
15112;SDS011;7657;50.140;7.076;2023-07-22T10:35:07;4.05;;;3.33;;
15112;SDS011;7657;50.140;7.076;2023-07-22T10:37:36;3.92;;;3.00;;
15112;SDS011;7657;50.140;7.076;2023-07-22T10:40:16;4.32;;;3.05;;
15112;SDS011;7657;50.140;7.076;2023-07-22T10:42:54;3.28;;;2.97;;
15112;SDS011;7657;50.140;7.076;2023-07-22T10:45:25;9.02;;;3.70;;
15112;SDS011;7657;50.140;7.076;2023-07-22T10:48:01;3.78;;;3.20;;
15112;SDS011;7657;50.140;7.076;2023-07-22T10:50:41;10.93;;;3.83;;
15112;SDS011;7657;50.140;7.076;2023-07-22T10:53:09;3.65;;;3.25;;
15112;SDS011;7657;50.140;7.076;2023-07-22T10:58:31;4.63;;;2.85;;
15112;SDS011;7657;50.140;7.076;2023-07-22T11:04:04;5.07;;;3.40;;
15112;SDS011;7657;50.140;7.076;2023-07-22T11:06:36;5.95;;;2.85;;
15112;SDS011;7657;50.140;7.076;2023-07-22T11:09:04;5.25;;;3.10;;
15112;SDS011;7657;50.140;7.076;2023-07-22T11:11:35;4.10;;;3.13;;
15112;SDS011;7657;50.140;7.076;2023-07-22T11:14:13;4.28;;;3.17;;
15112;SDS011;7657;50.140;7.076;2023-07-22T11:16:41;5.22;;;3.45;;
15112;SDS011;7657;50.140;7.076;2023-07-22T11:19:10;4.38;;;2.90;;
15112;SDS011;7657;50.140;7.076;2023-07-22T11:21:37;3.38;;;2.95;;
15112;SDS011;7657;50.140;7.076;2023-07-22T11:24:04;4.82;;;2.95;;
15112;SDS011;7657;50.140;7.076;2023-07-22T11:26:31;6.13;;;2.92;;
15112;SDS011;7657;50.140;7.076;2023-07-22T11:28:58;3.63;;;3.25;;
15112;SDS011;7657;50.140;7.076;2023-07-22T11:31:30;4.78;;;3.28;;
15112;SDS011;7657;50.140;7.076;2023-07-22T11:33:57;3.83;;;3.15;;
15112;SDS011;7657;50.140;7.076;2023-07-22T11:36:26;5.55;;;3.10;;
15112;SDS011;7657;50.140;7.076;2023-07-22T11:38:53;3.63;;;2.72;;
15112;SDS011;7657;50.140;7.076;2023-07-22T11:41:20;5.55;;;3.08;;
15112;SDS011;7657;50.140;7.076;2023-07-22T11:43:47;6.28;;;2.97;;
15112;SDS011;7657;50.140;7.076;2023-07-22T11:46:14;4.60;;;3.20;;
15112;SDS011;7657;50.140;7.076;2023-07-22T11:48:48;6.47;;;3.03;;
15112;SDS011;7657;50.140;7.076;2023-07-22T11:51:17;3.55;;;2.95;;
15112;SDS011;7657;50.140;7.076;2023-07-22T11:53:47;5.13;;;3.40;;
15112;SDS011;7657;50.140;7.076;2023-07-22T11:56:18;3.92;;;2.88;;
15112;SDS011;7657;50.140;7.076;2023-07-22T11:58:50;3.95;;;3.17;;
15112;SDS011;7657;50.140;7.076;2023-07-22T12:01:18;4.32;;;3.47;;
15112;SDS011;7657;50.140;7.076;2023-07-22T12:03:45;5.03;;;3.42;;
15112;SDS011;7657;50.140;7.076;2023-07-22T12:06:12;4.55;;;3.08;;
15112;SDS011;7657;50.140;7.076;2023-07-22T12:08:43;3.65;;;3.33;;
15112;SDS011;7657;50.140;7.076;2023-07-22T12:11:19;5.10;;;3.35;;
15112;SDS011;7657;50.140;7.076;2023-07-22T12:13:47;5.05;;;3.28;;
15112;SDS011;7657;50.140;7.076;2023-07-22T12:16:30;5.72;;;2.90;;
15112;SDS011;7657;50.140;7.076;2023-07-22T12:18:57;4.30;;;3.45;;
15112;SDS011;7657;50.140;7.076;2023-07-22T12:21:23;4.93;;;3.28;;
15112;SDS011;7657;50.140;7.076;2023-07-22T12:23:52;4.03;;;2.90;;
15112;SDS011;7657;50.140;7.076;2023-07-22T12:26:21;5.57;;;3.20;;
15112;SDS011;7657;50.140;7.076;2023-07-22T12:28:48;6.70;;;3.00;;
15112;SDS011;7657;50.140;7.076;2023-07-22T12:31:15;4.20;;;3.28;;
15112;SDS011;7657;50.140;7.076;2023-07-22T12:33:42;3.05;;;2.75;;
15112;SDS011;7657;50.140;7.076;2023-07-22T12:36:09;3.35;;;3.05;;
15112;SDS011;7657;50.140;7.076;2023-07-22T12:38:36;4.57;;;3.10;;
15112;SDS011;7657;50.140;7.076;2023-07-22T12:41:03;3.88;;;2.72;;
15112;SDS011;7657;50.140;7.076;2023-07-22T12:43:31;3.13;;;2.78;;
15112;SDS011;7657;50.140;7.076;2023-07-22T12:45:58;4.20;;;3.05;;
15112;SDS011;7657;50.140;7.076;2023-07-22T12:48:25;3.33;;;2.97;;
15112;SDS011;7657;50.140;7.076;2023-07-22T12:50:52;4.32;;;3.13;;
15112;SDS011;7657;50.140;7.076;2023-07-22T12:53:19;5.07;;;3.10;;
15112;SDS011;7657;50.140;7.076;2023-07-22T12:55:46;4.60;;;3.10;;
15112;SDS011;7657;50.140;7.076;2023-07-22T12:58:13;3.40;;;2.97;;
15112;SDS011;7657;50.140;7.076;2023-07-22T13:00:42;4.68;;;3.20;;
15112;SDS011;7657;50.140;7.076;2023-07-22T13:03:09;5.10;;;3.30;;
15112;SDS011;7657;50.140;7.076;2023-07-22T13:05:35;4.25;;;3.30;;
15112;SDS011;7657;50.140;7.076;2023-07-22T13:08:02;4.80;;;2.97;;
15112;SDS011;7657;50.140;7.076;2023-07-22T13:10:37;3.97;;;2.78;;
15112;SDS011;7657;50.140;7.076;2023-07-22T13:13:04;2.85;;;2.65;;
15112;SDS011;7657;50.140;7.076;2023-07-22T13:15:31;3.40;;;3.10;;
15112;SDS011;7657;50.140;7.076;2023-07-22T13:18:00;4.18;;;2.88;;
15112;SDS011;7657;50.140;7.076;2023-07-22T13:20:27;3.10;;;2.80;;
15112;SDS011;7657;50.140;7.076;2023-07-22T13:22:54;4.32;;;3.15;;
15112;SDS011;7657;50.140;7.076;2023-07-22T13:25:21;3.00;;;2.80;;
15112;SDS011;7657;50.140;7.076;2023-07-22T13:27:48;3.58;;;2.83;;
15112;SDS011;7657;50.140;7.076;2023-07-22T13:30:15;4.80;;;3.17;;
15112;SDS011;7657;50.140;7.076;2023-07-22T13:32:42;3.88;;;3.00;;
15112;SDS011;7657;50.140;7.076;2023-07-22T13:35:10;3.30;;;3.00;;
15112;SDS011;7657;50.140;7.076;2023-07-22T13:37:37;3.30;;;3.00;;
15112;SDS011;7657;50.140;7.076;2023-07-22T13:40:05;5.55;;;3.10;;
15112;SDS011;7657;50.140;7.076;2023-07-22T13:42:35;4.55;;;3.05;;
15112;SDS011;7657;50.140;7.076;2023-07-22T13:45:03;3.50;;;3.20;;
15112;SDS011;7657;50.140;7.076;2023-07-22T13:47:31;4.97;;;2.90;;
15112;SDS011;7657;50.140;7.076;2023-07-22T13:49:58;3.97;;;3.05;;
15112;SDS011;7657;50.140;7.076;2023-07-22T13:52:26;3.92;;;3.40;;
15112;SDS011;7657;50.140;7.076;2023-07-22T13:54:53;6.82;;;3.13;;
15112;SDS011;7657;50.140;7.076;2023-07-22T13:57:20;3.28;;;2.85;;
15112;SDS011;7657;50.140;7.076;2023-07-22T13:59:47;3.60;;;3.10;;
15112;SDS011;7657;50.140;7.076;2023-07-22T14:02:13;3.13;;;2.80;;
15112;SDS011;7657;50.140;7.076;2023-07-22T14:04:40;4.38;;;3.13;;
15112;SDS011;7657;50.140;7.076;2023-07-22T14:07:07;3.60;;;2.85;;
15112;SDS011;7657;50.140;7.076;2023-07-22T14:09:35;3.80;;;2.95;;
15112;SDS011;7657;50.140;7.076;2023-07-22T14:12:02;3.92;;;3.13;;
15112;SDS011;7657;50.140;7.076;2023-07-22T14:14:30;5.72;;;3.35;;
15112;SDS011;7657;50.140;7.076;2023-07-22T14:16:57;4.80;;;3.10;;
15112;SDS011;7657;50.140;7.076;2023-07-22T14:19:24;3.47;;;3.13;;
15112;SDS011;7657;50.140;7.076;2023-07-22T14:21:51;4.28;;;3.22;;
15112;SDS011;7657;50.140;7.076;2023-07-22T14:24:18;5.40;;;3.15;;
15112;SDS011;7657;50.140;7.076;2023-07-22T14:26:46;3.80;;;2.65;;
15112;SDS011;7657;50.140;7.076;2023-07-22T14:29:13;3.67;;;2.47;;
15112;SDS011;7657;50.140;7.076;2023-07-22T14:31:41;3.13;;;2.83;;
15112;SDS011;7657;50.140;7.076;2023-07-22T14:34:09;3.90;;;2.63;;
15112;SDS011;7657;50.140;7.076;2023-07-22T14:36:35;3.53;;;2.95;;
15112;SDS011;7657;50.140;7.076;2023-07-22T14:39:02;6.55;;;3.20;;
15112;SDS011;7657;50.140;7.076;2023-07-22T14:41:29;3.97;;;2.95;;
15112;SDS011;7657;50.140;7.076;2023-07-22T14:43:58;3.47;;;2.80;;
15112;SDS011;7657;50.140;7.076;2023-07-22T14:46:25;4.13;;;3.10;;
15112;SDS011;7657;50.140;7.076;2023-07-22T14:48:52;2.55;;;2.35;;
15112;SDS011;7657;50.140;7.076;2023-07-22T14:51:18;3.30;;;3.00;;
15112;SDS011;7657;50.140;7.076;2023-07-22T14:53:45;3.55;;;3.20;;
15112;SDS011;7657;50.140;7.076;2023-07-22T14:56:12;2.70;;;2.50;;
15112;SDS011;7657;50.140;7.076;2023-07-22T14:58:39;2.80;;;2.60;;
15112;SDS011;7657;50.140;7.076;2023-07-22T15:01:08;3.58;;;3.15;;
15112;SDS011;7657;50.140;7.076;2023-07-22T15:03:35;4.65;;;3.10;;
15112;SDS011;7657;50.140;7.076;2023-07-22T15:06:03;4.20;;;3.08;;
15112;SDS011;7657;50.140;7.076;2023-07-22T15:08:29;3.15;;;2.95;;
15112;SDS011;7657;50.140;7.076;2023-07-22T15:10:56;3.47;;;3.15;;